Time;durP1;ratioP1;P1;durP2;ratioP2;P2;SDS_P1;SDS_P2;PMS_P1;PMS_P2;Temp;Humidity;BMP_temperature;BMP_pressure;BME280_temperature;BME280_humidity;BME280_pressure;Samples;Min_cycle;Max_cycle;Signal;HPM_P1;HPM_P2
2022/11/06 00:02:24;;;;;;;19.33;13.20;;;;;;;1.67;59.94;101049.34;5039400;28;20033;-61
2022/11/06 00:04:50;;;;;;;22.25;13.63;;;;;;;1.67;59.53;101043.19;5052629;28;20029;-57
2022/11/06 00:07:15;;;;;;;18.30;13.32;;;;;;;1.67;59.28;101044.06;5053131;28;20029;-57
2022/11/06 00:09:41;;;;;;;20.35;13.70;;;;;;;1.66;59.44;101039.69;5052181;28;20123;-58
2022/11/06 00:12:06;;;;;;;20.35;13.88;;;;;;;1.68;59.56;101047.56;5052505;28;20040;-56
2022/11/06 00:14:31;;;;;;;19.33;13.15;;;;;;;1.68;59.31;101045.81;5053539;28;20033;-55
2022/11/06 00:16:57;;;;;;;21.02;14.30;;;;;;;1.47;59.70;101009.34;5038546;28;20026;-57
2022/11/06 00:19:22;;;;;;;20.65;13.32;;;;;;;1.66;59.75;101036.16;5033097;28;20040;-58
2022/11/06 00:21:48;;;;;;;21.70;14.40;;;;;;;1.77;60.04;101036.78;5034393;28;20044;-58
2022/11/06 00:24:14;;;;;;;21.42;15.02;;;;;;;1.57;59.39;101009.09;5033271;28;20037;-58
2022/11/06 00:26:40;;;;;;;22.38;15.35;;;;;;;1.72;59.67;101034.25;5033187;28;20507;-59
2022/11/06 00:29:06;;;;;;;20.92;15.80;;;;;;;1.72;59.48;101041.31;5052738;28;20041;-59
2022/11/06 00:31:35;;;;;;;22.38;15.82;;;;;;;1.73;59.35;101043.06;5052860;28;20043;-55
2022/11/06 00:34:01;;;;;;;22.38;16.23;;;;;;;1.64;59.85;101045.91;5051068;28;20043;-55
2022/11/06 00:36:31;;;;;;;22.80;16.75;;;;;;;1.57;59.84;101040.78;5053043;28;20033;-60
2022/11/06 00:38:58;;;;;;;24.55;16.70;;;;;;;1.54;60.07;101039.97;5052912;28;20185;-54
2022/11/06 00:41:24;;;;;;;22.88;17.30;;;;;;;1.50;59.96;101036.56;5042101;28;20033;-60
2022/11/06 00:43:55;;;;;;;24.73;17.45;;;;;;;1.52;60.56;101041.78;5033055;28;20111;-56
2022/11/06 00:46:21;;;;;;;24.73;17.20;;;;;;;1.53;59.89;101043.50;5032667;28;20410;-59
2022/11/06 00:48:47;;;;;;;23.85;16.90;;;;;;;1.53;60.01;101044.41;5031711;28;20029;-56
2022/11/06 00:51:25;;;;;;;25.15;17.08;;;;;;;1.54;59.81;101046.13;5032523;28;20030;-57
2022/11/06 00:53:59;;;;;;;25.95;16.98;;;;;;;1.54;60.17;101046.13;5032889;28;20048;-53
2022/11/06 00:56:25;;;;;;;24.80;17.75;;;;;;;1.47;60.23;101049.81;5032622;28;20120;-54
2022/11/06 00:58:51;;;;;;;24.98;17.25;;;;;;;1.42;60.34;101054.31;5034854;28;20029;-60
2022/11/06 01:01:23;;;;;;;24.92;17.80;;;;;;;1.39;60.40;101042.06;5052715;28;20036;-55
2022/11/06 01:03:54;;;;;;;23.80;17.92;;;;;;;1.43;60.21;101037.56;5052421;28;20470;-59
2022/11/06 01:06:23;;;;;;;27.05;18.45;;;;;;;1.44;60.23;101055.16;5052726;28;20335;-59
2022/11/06 01:08:49;;;;;;;27.63;18.17;;;;;;;1.42;60.77;101051.69;5052541;28;20037;-57
2022/11/06 01:11:19;;;;;;;27.33;18.27;;;;;;;1.45;60.61;101062.19;5052587;28;20033;-60
2022/11/06 01:13:48;;;;;;;27.92;18.58;;;;;;;1.47;60.74;101059.50;5052183;28;20028;-58
2022/11/06 01:16:15;;;;;;;28.10;18.52;;;;;;;1.48;60.58;101059.47;5052499;28;20044;-56
2022/11/06 01:18:42;;;;;;;25.67;17.90;;;;;;;1.52;60.51;101063.78;5035529;28;20099;-59
2022/11/06 01:21:13;;;;;;;24.48;16.65;;;;;;;1.53;60.37;101065.50;5052516;28;20039;-57
2022/11/06 01:23:38;;;;;;;25.85;17.23;;;;;;;1.53;60.22;101070.78;5052396;28;20040;-59
2022/11/06 01:26:06;;;;;;;21.80;15.68;;;;;;;1.54;59.53;101067.25;5051992;28;20041;-59
2022/11/06 01:28:32;;;;;;;20.85;14.73;;;;;;;1.42;60.02;101062.22;5035598;28;20101;-61
2022/11/06 01:31:09;;;;;;;22.58;15.57;;;;;;;1.45;60.15;101072.75;5036677;28;20038;-58
2022/11/06 01:33:35;;;;;;;23.45;15.55;;;;;;;1.41;59.95;101068.41;5035359;28;20491;-57
2022/11/06 01:36:00;;;;;;;19.95;14.77;;;;;;;1.34;60.38;101064.19;5036547;28;20033;-59
2022/11/06 01:38:26;;;;;;;22.15;15.27;;;;;;;0.96;60.61;101004.31;5036208;28;20041;-56
2022/11/06 01:40:52;;;;;;;21.15;14.95;;;;;;;1.24;60.39;101051.22;5036387;28;20035;-59
2022/11/06 01:43:21;;;;;;;20.65;14.63;;;;;;;1.28;60.76;101058.16;5051847;28;20045;-57
2022/11/06 01:45:49;;;;;;;22.80;15.52;;;;;;;1.25;60.86;101052.06;5055950;28;20083;-57
2022/11/06 01:48:17;;;;;;;23.02;14.27;;;;;;;1.27;60.70;101043.22;5040960;28;20025;-58
2022/11/06 01:50:47;;;;;;;19.60;14.07;;;;;;;1.29;60.65;101041.41;5036149;28;20029;-58
2022/11/06 01:53:13;;;;;;;21.60;14.75;;;;;;;1.31;60.56;101045.78;5029861;28;20052;-59
2022/11/06 01:55:43;;;;;;;18.92;14.40;;;;;;;1.33;60.39;101043.97;5035766;28;20365;-61
2022/11/06 01:58:12;;;;;;;20.35;15.02;;;;;;;1.32;60.59;101045.75;5035440;28;20029;-62
2022/11/06 02:00:38;;;;;;;20.00;14.07;;;;;;;1.31;60.24;101035.25;5035981;28;20035;-61
2022/11/06 02:03:03;;;;;;;18.52;13.95;;;;;;;1.28;60.03;101021.22;5036403;28;20101;-58
2022/11/06 02:05:29;;;;;;;22.35;15.02;;;;;;;1.24;60.33;101011.63;5036066;28;20121;-60
2022/11/06 02:07:56;;;;;;;20.00;14.65;;;;;;;1.33;60.56;101025.50;5035756;28;20069;-61
2022/11/06 02:10:22;;;;;;;21.17;14.82;;;;;;;1.39;60.38;101030.63;5055283;28;20036;-61
2022/11/06 02:12:56;;;;;;;20.20;14.80;;;;;;;1.42;60.30;101025.28;5055006;28;20384;-61
2022/11/06 02:15:54;;;;;;;19.70;13.68;;;;;;;1.49;60.79;101033.94;5051831;28;20067;-60
2022/11/06 02:18:23;;;;;;;19.13;13.95;;;;;;;1.47;60.11;101023.44;5053890;28;20481;-61
2022/11/06 02:21:04;;;;;;;25.02;14.32;;;;;;;1.52;60.15;101032.09;5054581;28;20033;-60
2022/11/06 02:23:54;;;;;;;19.13;14.00;;;;;;;1.41;60.18;101005.09;5052736;28;20122;-59
2022/11/06 02:26:43;;;;;;;18.95;13.95;;;;;;;1.56;60.09;101028.47;5053274;28;20464;-62
2022/11/06 02:29:30;;;;;;;18.08;13.13;;;;;;;1.53;59.66;101039.13;5054788;28;20218;-62
2022/11/06 02:31:59;;;;;;;17.05;12.63;;;;;;;1.51;60.10;101033.00;5055183;28;20978;-59
2022/11/06 02:34:27;;;;;;;18.85;12.73;;;;;;;1.45;59.64;101024.34;5055316;28;20029;-61
2022/11/06 02:37:00;;;;;;;18.83;13.70;;;;;;;1.46;59.90;101034.91;5045600;28;20029;-59
2022/11/06 02:39:28;;;;;;;19.38;13.13;;;;;;;1.43;60.03;101037.56;5034991;28;20034;-58
2022/11/06 02:41:58;;;;;;;18.75;13.23;;;;;;;1.24;59.94;100994.91;5044535;28;20021;-60
2022/11/06 02:44:27;;;;;;;20.17;13.55;;;;;;;1.20;59.80;101003.81;5054628;28;20106;-60
2022/11/06 02:46:57;;;;;;;18.27;13.18;;;;;;;1.40;59.74;101038.53;5070524;28;20424;-61
2022/11/06 02:49:31;;;;;;;18.42;13.25;;;;;;;1.36;60.21;101025.44;5054500;28;20029;-61
2022/11/06 02:52:03;;;;;;;18.60;13.40;;;;;;;1.41;60.17;101036.75;5055007;28;20033;-59
2022/11/06 02:54:33;;;;;;;18.73;13.20;;;;;;;1.41;59.76;101039.38;5054874;28;20064;-62
2022/11/06 02:57:04;;;;;;;18.17;13.20;;;;;;;1.39;59.43;101035.91;5044262;28;20055;-60
2022/11/06 02:59:44;;;;;;;20.60;14.23;;;;;;;1.38;59.65;101035.06;5034834;28;20041;-61
2022/11/06 03:02:15;;;;;;;17.30;12.85;;;;;;;1.28;59.12;101037.03;5034678;28;20479;-60
2022/11/06 03:04:50;;;;;;;22.58;13.73;;;;;;;1.27;59.11;101030.03;5034574;28;20481;-61
2022/11/06 03:07:21;;;;;;;20.27;14.23;;;;;;;1.28;59.03;101033.53;5035757;28;20022;-61
2022/11/06 03:09:48;;;;;;;21.75;14.30;;;;;;;1.25;59.33;101029.19;5047556;28;20060;-59
2022/11/06 03:12:36;;;;;;;19.75;14.70;;;;;;;1.21;59.10;101024.91;5053654;28;20025;-59
2022/11/06 03:15:20;;;;;;;22.48;15.00;;;;;;;1.29;59.29;101027.34;5054566;28;20366;-62
2022/11/06 03:17:56;;;;;;;23.85;14.80;;;;;;;1.15;58.77;101017.09;5053750;28;20452;-60
2022/11/06 03:20:31;;;;;;;24.90;15.52;;;;;;;1.12;59.00;101022.44;5054790;28;20440;-59
2022/11/06 03:23:17;;;;;;;24.35;15.65;;;;;;;1.17;59.35;101022.34;5054408;28;20086;-60
2022/11/06 03:25:53;;;;;;;24.45;15.65;;;;;;;1.12;59.31;101033.00;5054392;28;20033;-62
2022/11/06 03:28:18;;;;;;;;;;;;;;;1.32;59.18;101019.34;5054550;28;20028;-60
2022/11/06 03:30:46;;;;;;;;;;;;;;;1.40;58.26;101024.47;5051434;28;19915;-59
2022/11/06 03:33:22;;;;;;;27.23;14.25;;;;;;;1.10;58.77;101018.97;5034414;28;20018;-60
2022/11/06 03:36:00;;;;;;;20.73;14.23;;;;;;;1.06;59.00;101022.59;5034495;28;20396;-60
2022/11/06 03:38:51;;;;;;;24.75;14.65;;;;;;;1.04;59.09;101029.66;5034311;28;20037;-61
2022/11/06 03:41:37;;;;;;;21.23;14.05;;;;;;;0.91;58.74;101022.00;5034097;28;20033;-58
2022/11/06 03:44:05;;;;;;;22.45;14.80;;;;;;;0.80;59.27;101022.22;5045270;28;20040;-61
2022/11/06 03:46:36;;;;;;;21.45;14.18;;;;;;;0.78;59.29;101018.75;5053758;28;20041;-58
2022/11/06 03:49:05;;;;;;;19.23;13.73;;;;;;;0.73;59.25;101012.72;5053815;28;20475;-61
2022/11/06 03:51:43;;;;;;;25.83;14.93;;;;;;;0.80;59.34;101029.28;5052861;28;20045;-62
2022/11/06 03:54:37;;;;;;;21.50;13.70;;;;;;;0.83;59.41;101018.66;5054313;28;20029;-61
2022/11/06 03:57:11;;;;;;;20.90;13.73;;;;;;;0.79;58.89;101024.91;5042671;28;20036;-62
2022/11/06 03:59:48;;;;;;;19.65;13.95;;;;;;;0.76;59.10;101014.44;5053809;28;20123;-59
2022/11/06 04:02:16;;;;;;;21.65;14.73;;;;;;;0.67;59.08;101021.63;5053878;28;20120;-60
2022/11/06 04:04:50;;;;;;;22.27;14.10;;;;;;;0.73;59.51;101025.06;5053715;28;20043;-59
2022/11/06 04:07:21;;;;;;;23.58;14.23;;;;;;;0.71;59.17;101017.16;5053665;28;20116;-59
2022/11/06 04:15:25;;;;;;;21.40;14.60;;;;;;;0.54;59.31;101022.78;5033384;28;20033;-59
2022/11/06 04:17:51;;;;;;;20.10;14.30;;;;;;;0.35;59.10;100999.41;5043229;28;20429;-60
2022/11/06 04:23:18;;;;;;;22.40;15.27;;;;;;;0.55;59.40;101013.97;5033508;28;20099;-61
2022/11/06 04:26:37;;;;;;;20.63;14.30;;;;;;;0.73;59.43;101023.25;5034541;28;20431;-60
2022/11/06 04:29:06;;;;;;;19.80;13.68;;;;;;;0.67;58.92;101021.63;5011831;28;20056;-60
2022/11/06 04:31:41;;;;;;;20.67;14.18;;;;;;;0.68;59.45;101025.13;5030813;28;20375;-61
2022/11/06 04:34:32;;;;;;;23.90;13.95;;;;;;;0.69;59.30;101017.19;5032873;28;20033;-61
2022/11/06 04:37:09;;;;;;;21.25;14.60;;;;;;;0.73;59.19;101022.41;5032972;28;20037;-61
2022/11/06 04:39:59;;;;;;;19.55;13.90;;;;;;;0.74;59.54;101013.59;5037425;28;20107;-62
2022/11/06 04:43:25;;;;;;;23.50;14.07;;;;;;;0.75;59.57;101012.69;5051780;28;20064;-61
2022/11/06 04:45:54;;;;;;;24.48;14.75;;;;;;;0.69;59.19;101017.19;5009980;28;20053;-61
2022/11/06 04:48:22;;;;;;;19.88;13.77;;;;;;;0.68;59.36;101025.97;5010861;28;20438;-62
2022/11/06 04:50:51;;;;;;;19.00;13.70;;;;;;;0.71;59.59;101025.06;4991136;28;20046;-62
2022/11/06 04:53:19;;;;;;;23.23;14.48;;;;;;;0.49;59.46;101004.41;4992935;28;20133;-60
2022/11/06 04:55:47;;;;;;;19.85;14.85;;;;;;;0.70;59.49;101033.88;4991346;28;20529;-62
2022/11/06 04:58:13;;;;;;;20.55;14.43;;;;;;;0.68;59.79;101040.94;4991476;28;20132;-59
2022/11/06 05:00:43;;;;;;;23.10;14.13;;;;;;;0.68;59.75;101035.69;5005669;28;20118;-60
2022/11/06 05:03:08;;;;;;;27.00;15.13;;;;;;;0.49;59.50;101008.81;5010507;28;20073;-62
2022/11/06 05:05:34;;;;;;;21.73;14.75;;;;;;;0.50;59.57;101013.19;4998097;28;20076;-60
2022/11/06 05:07:59;;;;;;;22.15;14.95;;;;;;;0.67;59.78;101036.56;4991319;28;20054;-64
2022/11/06 05:10:25;;;;;;;22.98;14.02;;;;;;;0.62;59.53;101020.84;4991774;28;20050;-60
2022/11/06 05:12:50;;;;;;;21.45;14.82;;;;;;;0.67;59.69;101034.78;4991280;28;20092;-59
2022/11/06 05:15:15;;;;;;;23.80;15.13;;;;;;;0.61;59.80;101027.00;4996637;28;20039;-71
2022/11/06 05:17:41;;;;;;;21.52;14.48;;;;;;;0.67;59.37;101036.56;5052184;28;20029;-67
2022/11/06 05:20:07;;;;;;;21.33;14.30;;;;;;;0.69;59.53;101046.16;5067251;28;20037;-60
2022/11/06 05:25:16;;;;;;;23.95;14.93;;;;;;;0.74;59.50;101038.19;5048409;28;20467;-61
2022/11/06 05:27:41;;;;;;;23.20;14.43;;;;;;;0.63;59.75;101021.72;5052542;28;20029;-62
2022/11/06 05:30:07;;;;;;;25.13;13.98;;;;;;;0.79;59.68;101043.38;5052404;28;20032;-61
2022/11/06 05:32:33;;;;;;;19.88;14.32;;;;;;;0.82;59.45;101046.78;5052151;28;20033;-61
2022/11/06 05:34:58;;;;;;;19.25;13.82;;;;;;;0.84;59.45;101042.38;5051871;28;20424;-61
2022/11/06 05:37:23;;;;;;;21.25;14.10;;;;;;;0.88;59.43;101040.53;5051801;28;20036;-64
2022/11/06 05:39:49;;;;;;;23.10;14.88;;;;;;;0.85;59.22;101025.66;5042921;28;20094;-61
2022/11/06 05:42:14;;;;;;;21.60;14.32;;;;;;;0.87;59.61;101038.78;5032583;28;20438;-64
2022/11/06 05:44:40;;;;;;;22.38;14.88;;;;;;;0.88;59.15;101027.34;5048559;28;20437;-54
2022/11/06 05:47:05;;;;;;;22.48;14.32;;;;;;;0.91;59.85;101029.91;5051330;28;20106;-53
2022/11/06 05:49:31;;;;;;;23.38;15.30;;;;;;;0.94;59.35;101021.09;5049279;28;20060;-63
2022/11/06 05:51:56;;;;;;;25.90;15.57;;;;;;;0.99;59.12;101021.84;5051536;28;20098;-64
2022/11/06 05:54:22;;;;;;;26.50;16.13;;;;;;;1.00;59.17;101018.31;5051178;28;20025;-53
2022/11/06 05:56:47;;;;;;;25.40;16.55;;;;;;;0.83;59.04;100992.31;5051957;28;20032;-72
2022/11/06 05:59:12;;;;;;;28.65;16.58;;;;;;;0.95;59.34;101021.03;5050626;28;20041;-67
2022/11/06 06:01:38;;;;;;;27.52;16.98;;;;;;;0.77;59.30;100993.28;5051239;28;20037;-56
2022/11/06 06:04:04;;;;;;;24.40;16.58;;;;;;;0.99;59.11;101021.84;5051698;28;20047;-62
2022/11/06 06:06:29;;;;;;;26.88;17.80;;;;;;;0.93;59.11;101012.28;5051802;28;20044;-61
2022/11/06 06:08:55;;;;;;;26.33;16.85;;;;;;;0.91;59.69;101014.09;5051927;28;20021;-61
2022/11/06 06:11:20;;;;;;;27.05;17.65;;;;;;;0.97;59.22;101008.72;5050381;28;20513;-62
2022/11/06 06:13:47;;;;;;;30.25;18.02;;;;;;;0.98;59.26;101002.53;5067916;28;20110;-63
2022/11/06 06:16:12;;;;;;;27.98;18.38;;;;;;;1.02;59.18;101005.09;5054224;28;20371;-63
2022/11/06 06:18:38;;;;;;;29.45;18.42;;;;;;;1.08;59.04;101004.97;5043979;28;20045;-62
2022/11/06 06:21:03;;;;;;;29.80;18.60;;;;;;;1.10;58.84;101003.16;5034540;28;20036;-61
2022/11/06 06:23:29;;;;;;;31.45;18.23;;;;;;;1.11;58.84;100996.97;5035489;28;20144;-63
2022/11/06 06:25:56;;;;;;;30.52;18.80;;;;;;;1.12;59.58;101006.63;5044155;28;20032;-61
2022/11/06 06:28:21;;;;;;;30.73;18.60;;;;;;;1.16;59.28;101004.78;5054469;28;20374;-62
2022/11/06 06:30:47;;;;;;;30.42;17.85;;;;;;;1.24;59.25;101009.00;5055152;28;20043;-63
2022/11/06 06:33:12;;;;;;;26.30;18.27;;;;;;;1.26;58.41;101015.09;5053550;28;20441;-61
2022/11/06 06:35:38;;;;;;;30.15;18.25;;;;;;;1.24;58.78;101003.72;5055057;28;20154;-63
2022/11/06 06:38:03;;;;;;;30.30;18.52;;;;;;;1.22;59.19;100992.34;5054329;28;20312;-61
2022/11/06 06:40:29;;;;;;;29.85;18.23;;;;;;;1.27;58.54;100998.38;5054255;28;20107;-63
2022/11/06 06:42:58;;;;;;;27.23;17.67;;;;;;;1.29;58.67;101000.97;5053686;28;20372;-63
2022/11/06 06:45:24;;;;;;;26.63;17.80;;;;;;;1.07;58.61;100955.75;5054721;28;20041;-62
2022/11/06 06:47:50;;;;;;;27.70;17.77;;;;;;;1.29;58.50;100986.00;5055049;28;20082;-64
2022/11/06 06:50:15;;;;;;;23.88;16.67;;;;;;;1.36;58.55;101012.25;5049856;28;20469;-64
2022/11/06 06:52:41;;;;;;;24.90;17.33;;;;;;;1.40;58.44;101011.25;5035592;28;20448;-63
2022/11/06 06:55:06;;;;;;;24.83;16.55;;;;;;;1.16;58.56;100987.19;5035621;28;20033;-64
2022/11/06 06:57:32;;;;;;;25.77;16.38;;;;;;;1.29;58.65;101015.03;5037802;28;20104;-62
2022/11/06 06:59:57;;;;;;;25.75;15.95;;;;;;;1.31;58.65;101014.13;5052239;28;20341;-64
2022/11/06 07:02:23;;;;;;;22.38;15.07;;;;;;;1.26;58.64;101015.09;5034773;28;20029;-62
2022/11/06 07:04:48;;;;;;;19.85;14.02;;;;;;;1.29;58.32;101017.66;5050587;28;20033;-63
2022/11/06 07:07:14;;;;;;;22.60;14.43;;;;;;;1.09;58.47;100983.84;5051792;28;20017;-63
2022/11/06 07:09:39;;;;;;;18.27;13.20;;;;;;;1.29;58.40;101020.31;5053042;28;20431;-62
2022/11/06 07:12:05;;;;;;;23.17;13.43;;;;;;;1.35;58.46;101013.16;5051625;28;20033;-71
2022/11/06 07:14:30;;;;;;;19.70;13.05;;;;;;;1.43;58.05;101022.63;5050135;28;20044;-62
2022/11/06 07:16:56;;;;;;;19.83;13.57;;;;;;;1.18;58.06;100979.25;5051143;28;20439;-62
2022/11/06 07:19:21;;;;;;;18.67;13.27;;;;;;;1.36;58.16;101018.41;5049681;28;20113;-62
2022/11/06 07:21:50;;;;;;;18.23;13.05;;;;;;;1.35;58.45;101024.59;5050035;28;20032;-62
2022/11/06 07:24:17;;;;;;;19.75;13.60;;;;;;;1.21;58.49;100998.53;5050779;28;20056;-62
2022/11/06 07:26:42;;;;;;;20.25;12.93;;;;;;;1.35;58.21;101007.88;5052198;28;20037;-62
2022/11/06 07:29:07;;;;;;;17.23;12.50;;;;;;;1.39;58.11;101005.13;5052381;28;20049;-63
2022/11/06 07:31:33;;;;;;;19.38;13.15;;;;;;;1.39;58.37;101015.69;5050273;28;20033;-61
2022/11/06 07:33:58;;;;;;;20.27;13.30;;;;;;;1.46;58.53;101008.50;5053530;28;20033;-62
2022/11/06 07:36:24;;;;;;;20.98;13.32;;;;;;;1.55;58.28;101015.31;5052871;28;20134;-59
2022/11/06 07:38:49;;;;;;;18.55;12.85;;;;;;;1.64;57.66;101007.19;5053863;28;20029;-58
2022/11/06 07:41:14;;;;;;;18.58;12.85;;;;;;;1.68;57.42;101015.88;5052787;28;20116;-61
2022/11/06 07:43:41;;;;;;;18.70;13.10;;;;;;;1.63;57.94;101013.38;5052954;28;20060;-60
2022/11/06 07:46:10;;;;;;;15.75;11.75;;;;;;;1.64;57.81;101009.81;5069470;28;20051;-61
2022/11/06 07:48:36;;;;;;;19.90;12.70;;;;;;;1.57;57.59;101003.81;5053092;28;20033;-62
2022/11/06 07:51:04;;;;;;;17.55;12.23;;;;;;;1.45;57.96;100974.22;5052590;28;20111;-62
2022/11/06 07:53:30;;;;;;;20.90;12.30;;;;;;;1.64;57.45;100999.25;5053577;28;20037;-62
2022/11/06 07:55:56;;;;;;;21.38;12.77;;;;;;;1.69;57.45;101002.66;5044258;28;20029;-64
2022/11/06 07:58:23;;;;;;;22.08;12.27;;;;;;;1.70;57.64;101003.53;5047099;28;20445;-65
2022/11/06 08:00:50;;;;;;;22.35;13.10;;;;;;;1.77;57.75;100993.66;5051169;28;20108;-64
2022/11/06 08:03:16;;;;;;;20.02;12.70;;;;;;;1.83;57.42;100999.66;5053518;28;20363;-65
2022/11/06 08:05:42;;;;;;;15.60;12.02;;;;;;;1.89;57.95;100997.78;5053392;28;20039;-64
2022/11/06 08:08:08;;;;;;;15.13;11.77;;;;;;;1.93;57.29;101002.06;5052537;28;20029;-67
2022/11/06 08:10:36;;;;;;;24.90;12.60;;;;;;;2.01;57.44;100997.47;5052512;28;20108;-65
2022/11/06 08:13:02;;;;;;;17.10;11.32;;;;;;;1.98;57.25;100997.56;5051402;28;20033;-65
2022/11/06 08:15:27;;;;;;;19.80;12.25;;;;;;;2.01;56.79;101002.75;5033386;28;20111;-64
2022/11/06 08:17:53;;;;;;;17.80;10.90;;;;;;;1.96;56.98;101000.22;5033199;28;20034;-63
2022/11/06 08:20:19;;;;;;;15.77;11.73;;;;;;;1.95;57.17;101002.91;5047953;28;20021;-62
2022/11/06 08:22:44;;;;;;;16.60;11.65;;;;;;;1.83;57.00;100989.09;5069118;28;20040;-62
2022/11/06 08:25:09;;;;;;;19.30;11.73;;;;;;;1.79;57.16;100998.00;5053203;28;20033;-64
2022/11/06 08:27:35;;;;;;;18.42;11.75;;;;;;;1.87;57.44;101005.75;5051972;28;20021;-62
2022/11/06 08:30:01;;;;;;;17.52;10.82;;;;;;;1.90;57.20;101004.78;5039083;28;20086;-61
2022/11/06 08:32:27;;;;;;;18.40;11.07;;;;;;;1.91;57.71;101011.78;5032917;28;20471;-61
2022/11/06 08:34:53;;;;;;;13.38;11.20;;;;;;;1.94;56.89;101006.47;5033038;28;20452;-61
2022/11/06 08:37:19;;;;;;;13.23;10.45;;;;;;;1.89;57.04;100997.78;5045056;28;20033;-65
2022/11/06 08:39:44;;;;;;;14.88;10.90;;;;;;;1.94;57.01;100995.91;5051728;28;20171;-66
2022/11/06 08:42:10;;;;;;;12.30;10.10;;;;;;;1.98;57.13;101003.69;5052901;28;20037;-67
2022/11/06 08:44:36;;;;;;;14.65;10.13;;;;;;;1.93;57.46;101000.31;5052019;28;20178;-63
2022/11/06 08:47:02;;;;;;;14.95;10.77;;;;;;;1.82;57.31;100976.81;5052505;28;20041;-64
2022/11/06 08:49:27;;;;;;;14.68;10.50;;;;;;;2.09;56.84;100992.84;5042675;28;20040;-62
2022/11/06 08:51:53;;;;;;;12.63;10.13;;;;;;;2.19;56.73;101003.19;5060869;28;20064;-63
2022/11/06 08:54:19;;;;;;;13.80;10.82;;;;;;;2.20;56.12;100992.56;5052369;28;20036;-64
2022/11/06 08:56:44;;;;;;;15.32;11.05;;;;;;;2.19;55.96;100992.63;5052561;28;20044;-65
2022/11/06 08:59:10;;;;;;;14.32;10.70;;;;;;;2.00;56.27;100967.53;5051870;28;20112;-64
2022/11/06 09:01:35;;;;;;;13.73;10.82;;;;;;;2.18;56.37;100991.72;5051628;28;20066;-63
2022/11/06 09:04:00;;;;;;;13.52;10.07;;;;;;;2.23;56.29;100986.31;5052370;28;20078;-64
2022/11/06 09:06:26;;;;;;;15.00;10.40;;;;;;;2.15;56.27;100984.75;5052092;28;20082;-64
2022/11/06 09:08:51;;;;;;;19.08;11.38;;;;;;;2.14;56.22;100966.31;5045667;28;20026;-64
2022/11/06 09:11:17;;;;;;;13.65;11.20;;;;;;;2.18;56.62;100985.59;5032614;28;20661;-63
2022/11/06 09:13:42;;;;;;;14.82;11.75;;;;;;;1.98;56.04;100945.56;5030902;28;20034;-63
2022/11/06 09:16:08;;;;;;;19.17;11.57;;;;;;;2.21;56.13;100980.22;5032516;28;20117;-63
2022/11/06 09:18:33;;;;;;;16.98;11.10;;;;;;;2.25;56.08;100984.50;5031415;28;20035;-64
2022/11/06 09:20:59;;;;;;;16.90;11.38;;;;;;;2.27;56.08;100974.75;5052405;28;20043;-62
2022/11/06 09:23:24;;;;;;;16.95;12.05;;;;;;;2.35;55.28;100985.13;5052471;28;20191;-62
2022/11/06 09:25:49;;;;;;;20.55;12.50;;;;;;;2.34;55.53;100976.31;5052132;28;20433;-63
2022/11/06 09:28:15;;;;;;;14.88;11.85;;;;;;;2.37;55.63;100981.50;5035932;28;20041;-61
2022/11/06 09:30:41;;;;;;;20.08;13.38;;;;;;;2.42;55.71;100984.03;5052178;28;20038;-63
2022/11/06 09:33:06;;;;;;;15.50;12.13;;;;;;;2.43;55.93;100972.56;5050927;28;20040;-64
2022/11/06 09:35:33;;;;;;;18.08;13.23;;;;;;;2.51;55.29;100974.97;5031127;28;20468;-64
2022/11/06 09:38:03;;;;;;;19.15;13.45;;;;;;;2.47;55.22;100970.69;5032962;28;20120;-63
2022/11/06 09:40:38;;;;;;;18.13;13.95;;;;;;;2.48;55.30;100970.63;5032899;28;20030;-65
2022/11/06 09:43:48;;;;;;;17.42;13.82;;;;;;;2.48;55.43;100954.78;5032009;28;20041;-65
2022/11/06 09:46:32;;;;;;;17.30;13.38;;;;;;;2.43;55.92;100957.56;5030438;28;20053;-67
2022/11/06 09:49:00;;;;;;;21.30;14.07;;;;;;;2.35;55.74;100953.41;5032675;28;20045;-63
2022/11/06 09:51:25;;;;;;;23.38;14.02;;;;;;;2.33;55.96;100953.44;5035078;28;20083;-64
2022/11/06 09:54:14;;;;;;;19.90;15.00;;;;;;;2.42;55.70;100954.97;5035914;28;20065;-62
2022/11/06 09:56:42;;;;;;;20.50;14.63;;;;;;;2.47;55.22;100953.03;5040443;28;20424;-63
2022/11/06 09:59:15;;;;;;;21.38;14.68;;;;;;;2.52;55.46;100950.28;5047936;28;20419;-61
2022/11/06 10:01:43;;;;;;;21.95;15.00;;;;;;;2.47;54.88;100941.63;5035819;28;20483;-63
2022/11/06 10:04:37;;;;;;;23.33;15.48;;;;;;;2.44;55.10;100938.16;5055735;28;20067;-63
2022/11/06 10:07:03;;;;;;;23.40;15.20;;;;;;;2.44;55.26;100943.44;5054344;28;20383;-63
2022/11/06 10:09:28;;;;;;;21.77;15.77;;;;;;;2.43;55.13;100933.78;5055717;28;20109;-62
2022/11/06 10:12:08;;;;;;;23.05;15.70;;;;;;;2.54;55.37;100929.94;5055598;28;20107;-62
2022/11/06 10:14:46;;;;;;;22.85;15.88;;;;;;;2.53;55.30;100937.03;5055705;28;20024;-62
2022/11/06 10:17:21;;;;;;;21.92;16.52;;;;;;;2.51;54.99;100932.69;5047645;28;20034;-68
2022/11/06 10:19:59;;;;;;;26.67;15.53;;;;;;;2.54;55.48;100937.88;5047555;28;20039;-64
2022/11/06 10:22:38;;;;;;;20.65;15.55;;;;;;;2.49;55.39;100945.09;5055138;28;20080;-67
2022/11/06 10:25:18;;;;;;;26.65;17.35;;;;;;;2.48;55.18;100938.91;5055434;28;20033;-67
2022/11/06 10:27:55;;;;;;;24.88;16.33;;;;;;;2.53;55.27;100947.59;5053549;28;20024;-66
2022/11/06 10:30:20;;;;;;;23.80;16.05;;;;;;;2.46;55.25;100924.88;5055176;28;20084;-63
2022/11/06 10:32:48;;;;;;;23.73;16.90;;;;;;;2.57;55.29;100940.44;5054979;28;20469;-58
2022/11/06 10:35:29;;;;;;;22.55;15.85;;;;;;;2.67;54.93;100933.97;5054163;28;20041;-64
2022/11/06 10:38:04;;;;;;;23.10;14.70;;;;;;;2.62;54.44;100935.88;5038900;28;20037;-63
2022/11/06 10:40:31;;;;;;;23.87;15.67;;;;;;;2.31;54.66;100901.56;5053940;28;20368;-62
2022/11/06 10:43:23;;;;;;;22.60;14.98;;;;;;;2.54;55.28;100940.53;5053185;28;20071;-64
2022/11/06 10:45:57;;;;;;;21.88;15.80;;;;;;;2.46;54.92;100926.66;5054943;28;20041;-66
2022/11/06 10:48:29;;;;;;;25.63;14.55;;;;;;;2.54;54.92;100933.47;5055094;28;20072;-66
2022/11/06 10:51:00;;;;;;;18.98;14.40;;;;;;;2.51;54.78;100928.25;5051298;28;20432;-72
2022/11/06 10:53:59;;;;;;;20.98;13.80;;;;;;;2.57;54.91;100940.44;5034645;28;20490;-67
2022/11/06 10:56:30;;;;;;;19.77;14.50;;;;;;;2.39;54.57;100934.75;5034997;28;20033;-62
2022/11/06 10:58:56;;;;;;;23.80;13.80;;;;;;;2.34;54.94;100931.38;5041271;28;20164;-62
2022/11/06 11:01:21;;;;;;;18.85;13.15;;;;;;;2.35;55.04;100937.56;5054443;28;20103;-61
2022/11/06 11:03:49;;;;;;;19.25;14.38;;;;;;;2.37;55.03;100926.00;5047075;28;20029;-62
2022/11/06 11:06:15;;;;;;;21.42;14.50;;;;;;;2.39;55.13;100924.19;5034844;28;20041;-62
2022/11/06 11:08:47;;;;;;;16.80;13.20;;;;;;;2.49;54.71;100926.56;5034535;28;20120;-62
2022/11/06 11:11:13;;;;;;;19.30;12.63;;;;;;;2.52;54.86;100929.13;5034407;28;20048;-71
2022/11/06 11:13:39;;;;;;;16.70;12.25;;;;;;;2.54;54.68;100922.91;5034607;28;20045;-62
2022/11/06 11:16:12;;;;;;;16.58;12.20;;;;;;;2.58;55.23;100910.44;5038301;28;20037;-61
2022/11/06 11:18:38;;;;;;;15.88;11.43;;;;;;;2.50;55.03;100909.81;5042822;28;20068;-62
2022/11/06 11:21:11;;;;;;;16.83;11.63;;;;;;;2.53;54.93;100909.72;5034034;28;20049;-56
2022/11/06 11:23:36;;;;;;;16.83;11.18;;;;;;;2.46;54.88;100901.09;5034372;28;20047;-62
2022/11/06 11:26:23;;;;;;;17.73;10.60;;;;;;;2.56;55.09;100912.25;5034454;28;20037;-61
2022/11/06 11:28:57;;;;;;;13.18;10.18;;;;;;;2.44;54.48;100910.84;5033917;28;20055;-62
2022/11/06 11:31:32;;;;;;;16.30;11.27;;;;;;;2.36;54.82;100903.13;5034004;28;20047;-62
2022/11/06 11:34:02;;;;;;;14.25;10.95;;;;;;;2.21;54.92;100896.50;5052811;28;20254;-62
2022/11/06 11:36:46;;;;;;;17.75;10.85;;;;;;;2.24;55.75;100904.34;5054102;28;20029;-63
2022/11/06 11:39:13;;;;;;;19.58;12.10;;;;;;;2.10;55.27;100895.97;5037136;28;20191;-61
2022/11/06 11:41:38;;;;;;;16.48;11.68;;;;;;;1.93;55.71;100872.63;5043794;28;20033;-62